Time;durP1;ratioP1;P1;durP2;ratioP2;P2;SDS_P1;SDS_P2;PMS_P1;PMS_P2;Temp;Humidity;BMP_temperature;BMP_pressure;BME280_temperature;BME280_humidity;BME280_pressure;Samples;Min_cycle;Max_cycle;Signal;HPM_P1;HPM_P2
2022/01/05 00:00:36;;;;;;;13.20;3.80;;;6.20;99.90;;;;;;5025358;28;20029;-65
2022/01/05 00:03:04;;;;;;;9.15;4.18;;;6.10;99.90;;;;;;5027015;28;20484;-65
2022/01/05 00:05:31;;;;;;;12.98;4.88;;;6.10;99.90;;;;;;5025401;28;20572;-65
2022/01/05 00:07:56;;;;;;;10.15;3.83;;;6.00;99.90;;;;;;5027958;28;20103;-65
2022/01/05 00:10:22;;;;;;;14.30;3.88;;;6.10;99.90;;;;;;5026579;28;20080;-65
2022/01/05 00:12:48;;;;;;;11.30;4.03;;;6.00;99.90;;;;;;5031248;28;20512;-65
2022/01/05 00:15:14;;;;;;;10.45;4.00;;;6.00;99.90;;;;;;5030170;28;20037;-65
2022/01/05 00:17:40;;;;;;;10.82;4.30;;;6.10;99.90;;;;;;5024868;28;20022;-65
2022/01/05 00:20:07;;;;;;;11.40;4.50;;;6.20;99.90;;;;;;5026985;28;20053;-65
2022/01/05 00:22:32;;;;;;;8.93;3.92;;;6.20;99.90;;;;;;5027199;28;20033;-65
2022/01/05 00:24:58;;;;;;;13.60;4.22;;;6.30;99.90;;;;;;5024764;28;20496;-65
2022/01/05 00:27:24;;;;;;;7.95;4.07;;;6.30;99.90;;;;;;5024534;28;20045;-65
2022/01/05 00:29:50;;;;;;;13.27;4.68;;;6.30;99.90;;;;;;5024571;28;20028;-65
2022/01/05 00:32:16;;;;;;;11.23;4.38;;;6.20;99.90;;;;;;5025695;28;20036;-65
2022/01/05 00:34:42;;;;;;;12.82;4.88;;;6.30;99.90;;;;;;5028391;28;20029;-65
2022/01/05 00:37:07;;;;;;;16.25;5.43;;;6.20;99.90;;;;;;5024826;28;20052;-65
2022/01/05 00:39:33;;;;;;;12.50;4.38;;;6.20;99.90;;;;;;5024780;28;20031;-65
2022/01/05 00:41:59;;;;;;;15.40;3.65;;;6.20;99.90;;;;;;5025214;28;20060;-65
2022/01/05 00:44:25;;;;;;;14.68;3.60;;;6.10;99.90;;;;;;5024729;28;20104;-65
2022/01/05 00:46:51;;;;;;;14.55;3.22;;;6.10;99.90;;;;;;5029022;28;20029;-65
2022/01/05 00:49:17;;;;;;;11.85;3.63;;;6.10;99.90;;;;;;5024649;28;20432;-65
2022/01/05 00:51:43;;;;;;;13.15;4.13;;;6.10;99.90;;;;;;5023958;28;20026;-65
2022/01/05 00:54:09;;;;;;;14.35;4.13;;;6.00;99.90;;;;;;5024657;28;20087;-65
2022/01/05 00:56:35;;;;;;;12.90;3.53;;;6.00;99.90;;;;;;5027264;28;20080;-65
2022/01/05 00:59:01;;;;;;;13.45;3.55;;;6.00;99.90;;;;;;5026309;28;20022;-65
2022/01/05 01:01:26;;;;;;;9.10;3.10;;;6.00;99.90;;;;;;5025740;28;20092;-65
2022/01/05 01:03:53;;;;;;;10.50;2.83;;;5.90;99.90;;;;;;5024847;28;20103;-65
2022/01/05 01:06:19;;;;;;;10.80;3.05;;;5.90;99.90;;;;;;5024390;28;20022;-66
2022/01/05 01:08:44;;;;;;;14.32;3.42;;;5.90;99.90;;;;;;5026403;28;20021;-66
2022/01/05 01:11:10;;;;;;;12.23;3.28;;;5.80;99.90;;;;;;5025923;28;20021;-65
2022/01/05 01:13:36;;;;;;;12.93;3.20;;;5.70;99.90;;;;;;5026590;28;20080;-65
2022/01/05 01:16:02;;;;;;;13.90;3.50;;;5.70;99.90;;;;;;5024308;28;20421;-65
2022/01/05 01:18:28;;;;;;;10.27;3.38;;;5.80;99.90;;;;;;5024238;28;20033;-65
2022/01/05 01:20:54;;;;;;;11.57;3.83;;;5.80;99.90;;;;;;5024834;28;20069;-65
2022/01/05 01:23:22;;;;;;;13.20;4.03;;;5.70;99.90;;;;;;5025905;28;20440;-65
2022/01/05 01:25:50;;;;;;;13.98;3.83;;;5.70;99.90;;;;;;5028757;28;20095;-66
2022/01/05 01:28:16;;;;;;;10.77;3.60;;;5.70;99.90;;;;;;5025636;28;20176;-65
2022/01/05 01:30:42;;;;;;;12.43;4.15;;;5.70;99.90;;;;;;5019308;28;20083;-65
2022/01/05 01:33:08;;;;;;;15.05;4.10;;;5.70;99.90;;;;;;5023815;28;20034;-65
2022/01/05 01:35:34;;;;;;;11.38;3.65;;;5.80;99.90;;;;;;5024312;28;20030;-65
2022/01/05 01:38:00;;;;;;;13.55;3.60;;;5.80;99.90;;;;;;5026838;28;20033;-65
2022/01/05 01:40:26;;;;;;;10.57;3.08;;;5.80;99.90;;;;;;5027096;28;20052;-65
2022/01/05 01:42:52;;;;;;;14.77;3.90;;;5.80;99.90;;;;;;5023515;28;20033;-65
2022/01/05 01:45:17;;;;;;;8.85;3.38;;;5.80;99.90;;;;;;5024499;28;20026;-65
2022/01/05 01:47:43;;;;;;;10.55;3.53;;;5.80;99.90;;;;;;5024239;28;20025;-65
2022/01/05 01:50:10;;;;;;;8.40;3.28;;;5.80;99.90;;;;;;5026222;28;20448;-65
2022/01/05 01:52:36;;;;;;;9.27;3.47;;;5.70;99.90;;;;;;5026368;28;20029;-65
2022/01/05 01:55:03;;;;;;;9.70;3.10;;;5.70;99.90;;;;;;5023766;28;20026;-65
2022/01/05 01:57:33;;;;;;;9.05;3.55;;;5.60;99.90;;;;;;5023979;28;20044;-65
2022/01/05 02:00:00;;;;;;;8.45;2.92;;;5.50;99.90;;;;;;5025372;28;20045;-65
2022/01/05 02:02:26;;;;;;;14.15;3.47;;;5.50;99.90;;;;;;5026189;28;20046;-65
2022/01/05 02:04:51;;;;;;;13.68;4.53;;;5.50;99.90;;;;;;5030498;28;20034;-66
2022/01/05 02:07:17;;;;;;;11.77;4.20;;;5.50;99.90;;;;;;5027793;28;20033;-65
2022/01/05 02:09:43;;;;;;;8.63;3.22;;;5.50;99.90;;;;;;5027431;28;20091;-65
2022/01/05 02:12:10;;;;;;;12.98;3.25;;;5.50;99.90;;;;;;5029350;28;20127;-65
2022/01/05 02:14:36;;;;;;;8.93;3.08;;;5.40;99.90;;;;;;5027426;28;20052;-65
2022/01/05 02:17:04;;;;;;;7.75;2.55;;;5.40;99.90;;;;;;5029650;28;20652;-65
2022/01/05 02:19:31;;;;;;;9.50;3.28;;;5.40;99.90;;;;;;5028796;28;20138;-65
2022/01/05 02:21:57;;;;;;;13.48;3.17;;;5.40;99.90;;;;;;5027470;28;20495;-65
2022/01/05 02:24:22;;;;;;;10.75;3.05;;;5.50;99.90;;;;;;5026989;28;20026;-65
2022/01/05 02:26:48;;;;;;;9.95;2.78;;;5.60;99.90;;;;;;5028884;28;20038;-66
2022/01/05 02:29:14;;;;;;;11.32;3.30;;;5.60;99.90;;;;;;5028166;28;20034;-65
2022/01/05 02:31:39;;;;;;;12.20;3.20;;;5.60;99.90;;;;;;5029169;28;20030;-65
2022/01/05 02:34:05;;;;;;;6.43;2.53;;;5.50;99.90;;;;;;5026636;28;20048;-66
2022/01/05 02:36:31;;;;;;;10.45;2.80;;;5.40;99.90;;;;;;5026711;28;20424;-65
2022/01/05 02:38:57;;;;;;;9.20;2.70;;;5.30;99.90;;;;;;5028409;28;20386;-65
2022/01/05 02:41:23;;;;;;;13.40;2.78;;;5.30;99.90;;;;;;5027291;28;20032;-65
2022/01/05 02:43:50;;;;;;;8.50;2.67;;;5.40;99.90;;;;;;5030591;28;20029;-65
2022/01/05 02:46:18;;;;;;;9.75;2.85;;;5.40;99.90;;;;;;5026196;28;20037;-65
2022/01/05 02:48:45;;;;;;;11.70;2.90;;;5.40;99.90;;;;;;5029157;28;20536;-65
2022/01/05 02:51:12;;;;;;;12.82;3.42;;;5.50;99.90;;;;;;5026280;28;20475;-66
2022/01/05 02:53:38;;;;;;;12.90;3.10;;;5.50;99.90;;;;;;5026699;28;20084;-65
2022/01/05 02:56:05;;;;;;;9.60;2.97;;;5.50;99.90;;;;;;5028946;28;20030;-65
2022/01/05 02:58:31;;;;;;;9.95;3.10;;;5.50;99.90;;;;;;5029577;28;20029;-65
2022/01/05 03:00:57;;;;;;;12.73;3.03;;;5.50;99.90;;;;;;5026244;28;20048;-65
2022/01/05 03:03:22;;;;;;;13.05;3.35;;;5.50;99.90;;;;;;5027528;28;20397;-66
2022/01/05 03:05:48;;;;;;;11.30;3.35;;;5.60;99.90;;;;;;5027989;28;20029;-65
2022/01/05 03:08:14;;;;;;;15.88;3.38;;;5.50;99.90;;;;;;5027342;28;20923;-65
2022/01/05 03:10:40;;;;;;;10.65;2.92;;;5.50;99.90;;;;;;5028773;28;20056;-65
2022/01/05 03:13:06;;;;;;;18.98;3.05;;;5.50;99.90;;;;;;5025948;28;20056;-66
2022/01/05 03:15:35;;;;;;;13.05;3.70;;;5.50;99.90;;;;;;5027778;28;20540;-65
2022/01/05 03:18:05;;;;;;;16.40;3.25;;;5.60;99.90;;;;;;5025986;28;20033;-65
2022/01/05 03:20:31;;;;;;;11.65;3.05;;;5.60;99.90;;;;;;5026134;28;20116;-65
2022/01/05 03:22:58;;;;;;;9.88;3.38;;;5.50;99.90;;;;;;5029129;28;20025;-65
2022/01/05 03:25:25;;;;;;;13.02;3.20;;;5.40;99.90;;;;;;5027828;28;20116;-65
2022/01/05 03:27:53;;;;;;;14.13;3.42;;;5.30;99.90;;;;;;5026625;28;20038;-66
2022/01/05 03:30:23;;;;;;;10.95;3.20;;;5.30;99.90;;;;;;5027810;28;20057;-65
2022/01/05 03:35:25;;;;;;;10.40;2.90;;;5.20;99.90;;;;;;5024003;28;20420;-65
2022/01/05 03:37:51;;;;;;;8.10;3.08;;;5.20;99.90;;;;;;5025342;28;20024;-65
2022/01/05 03:40:17;;;;;;;10.02;3.05;;;5.10;99.90;;;;;;5025399;28;20044;-65
2022/01/05 03:42:43;;;;;;;9.20;2.45;;;5.10;99.90;;;;;;5025214;28;20025;-66
2022/01/05 03:45:09;;;;;;;10.48;2.85;;;5.20;99.90;;;;;;5025119;28;20445;-65
2022/01/05 03:47:35;;;;;;;9.48;2.92;;;5.10;99.90;;;;;;5027744;28;20033;-65
2022/01/05 03:50:01;;;;;;;11.98;2.60;;;5.10;99.90;;;;;;5028173;28;20030;-65
2022/01/05 03:52:26;;;;;;;10.77;2.70;;;5.10;99.90;;;;;;5027546;28;20025;-65
2022/01/05 03:54:52;;;;;;;8.35;2.80;;;5.00;99.90;;;;;;5025422;28;20036;-64
2022/01/05 03:57:18;;;;;;;11.15;2.70;;;5.00;99.90;;;;;;5025178;28;20029;-65
2022/01/05 03:59:44;;;;;;;11.65;2.72;;;5.00;99.90;;;;;;5025288;28;20732;-65
2022/01/05 04:02:10;;;;;;;6.60;2.60;;;5.00;99.90;;;;;;5027780;28;20506;-65
2022/01/05 04:04:36;;;;;;;8.35;2.60;;;5.00;99.90;;;;;;5029138;28;20480;-65
2022/01/05 04:07:02;;;;;;;8.30;2.70;;;5.00;99.90;;;;;;5024698;28;20021;-65
2022/01/05 04:09:28;;;;;;;9.32;2.30;;;5.00;99.90;;;;;;5024943;28;20396;-65
2022/01/05 04:11:54;;;;;;;11.57;2.83;;;5.00;99.90;;;;;;5024959;28;20030;-65
2022/01/05 04:14:20;;;;;;;10.45;2.75;;;5.00;99.90;;;;;;5025537;28;20021;-65
2022/01/05 04:16:45;;;;;;;7.53;2.47;;;4.90;99.90;;;;;;5028476;28;20460;-65
2022/01/05 04:19:11;;;;;;;10.48;3.03;;;4.90;99.90;;;;;;5024824;28;20108;-65
2022/01/05 04:21:37;;;;;;;15.43;3.13;;;5.00;99.90;;;;;;5024636;28;20158;-65
2022/01/05 04:24:03;;;;;;;16.77;3.50;;;5.00;99.90;;;;;;5025113;28;20063;-65
2022/01/05 04:26:28;;;;;;;7.90;2.85;;;5.00;99.90;;;;;;5023895;28;20025;-65
2022/01/05 04:28:54;;;;;;;10.75;2.92;;;5.00;99.90;;;;;;5028191;28;20033;-65
2022/01/05 04:31:20;;;;;;;11.23;2.85;;;5.00;99.90;;;;;;5024812;28;20169;-65
2022/01/05 04:33:46;;;;;;;10.48;3.00;;;5.00;99.90;;;;;;5027499;28;20048;-65
2022/01/05 04:36:11;;;;;;;7.95;2.42;;;5.10;99.90;;;;;;5024315;28;20037;-65
2022/01/05 04:38:39;;;;;;;8.77;2.33;;;5.00;99.90;;;;;;5026278;28;20080;-65
2022/01/05 04:41:09;;;;;;;9.80;2.45;;;5.10;99.90;;;;;;5027151;28;20040;-65
2022/01/05 04:43:39;;;;;;;11.80;2.72;;;5.10;99.90;;;;;;5026708;28;20013;-65
2022/01/05 04:46:07;;;;;;;8.57;2.67;;;5.10;99.90;;;;;;5024962;28;20029;-65
2022/01/05 04:48:36;;;;;;;10.00;2.42;;;5.20;99.90;;;;;;5024671;28;20088;-65
2022/01/05 04:51:05;;;;;;;12.40;2.67;;;5.10;99.90;;;;;;5024477;28;20034;-65
2022/01/05 04:53:35;;;;;;;10.65;2.47;;;5.10;99.90;;;;;;5024910;28;20029;-65
2022/01/05 04:56:05;;;;;;;15.57;2.80;;;5.00;99.90;;;;;;5026593;28;20104;-65
2022/01/05 04:58:35;;;;;;;8.70;2.57;;;5.00;99.90;;;;;;5026039;28;20481;-65
2022/01/05 05:01:03;;;;;;;14.38;2.50;;;5.00;99.90;;;;;;5023669;28;20505;-65
2022/01/05 05:03:33;;;;;;;10.05;2.17;;;4.90;99.90;;;;;;5024195;28;20508;-65
2022/01/05 05:06:02;;;;;;;10.85;2.55;;;4.90;99.90;;;;;;5023063;28;20027;-65
2022/01/05 05:08:31;;;;;;;8.45;2.08;;;4.90;99.90;;;;;;5026687;28;20503;-65
2022/01/05 05:11:00;;;;;;;9.77;1.90;;;5.00;99.90;;;;;;5027589;28;20432;-65
2022/01/05 05:13:30;;;;;;;12.60;2.17;;;5.00;99.90;;;;;;5026144;28;20116;-65
2022/01/05 05:16:02;;;;;;;9.73;2.10;;;4.90;99.90;;;;;;5024361;28;20507;-65
2022/01/05 05:18:28;;;;;;;10.20;2.72;;;4.90;99.90;;;;;;5024010;28;20113;-65
2022/01/05 05:20:56;;;;;;;6.63;2.20;;;4.80;99.90;;;;;;5026717;28;20032;-65
2022/01/05 05:23:22;;;;;;;8.70;2.20;;;4.80;99.90;;;;;;5024642;28;20083;-65
2022/01/05 05:25:48;;;;;;;7.55;1.90;;;4.80;99.90;;;;;;5029421;28;20029;-64
2022/01/05 05:28:14;;;;;;;8.82;2.05;;;4.70;99.90;;;;;;5026028;28;20081;-63
2022/01/05 05:30:40;;;;;;;9.32;2.05;;;4.60;99.90;;;;;;5024880;28;20049;-64
2022/01/05 05:33:06;;;;;;;13.45;2.38;;;4.60;99.90;;;;;;5024562;28;20392;-64
2022/01/05 05:35:32;;;;;;;9.73;1.95;;;4.60;99.90;;;;;;5016846;28;20025;-64
2022/01/05 05:37:58;;;;;;;7.47;2.10;;;4.60;99.90;;;;;;5027451;28;20033;-64
2022/01/05 05:40:24;;;;;;;11.18;2.25;;;4.60;99.90;;;;;;5029298;28;20394;-64
2022/01/05 05:42:51;;;;;;;11.98;2.22;;;4.70;99.90;;;;;;5030611;28;20024;-64
2022/01/05 05:45:17;;;;;;;11.98;2.75;;;4.80;99.90;;;;;;5027445;28;20422;-64
2022/01/05 05:47:42;;;;;;;9.35;2.20;;;4.80;99.90;;;;;;5029611;28;20675;-63
2022/01/05 05:50:09;;;;;;;7.38;2.20;;;4.80;99.90;;;;;;5030568;28;20039;-63
2022/01/05 05:52:35;;;;;;;8.35;2.00;;;4.80;99.90;;;;;;5029580;28;20026;-63
2022/01/05 05:55:01;;;;;;;10.30;2.85;;;4.90;99.90;;;;;;5029908;28;20308;-64
2022/01/05 05:57:27;;;;;;;10.00;3.25;;;4.90;99.90;;;;;;5030359;28;20104;-63
2022/01/05 05:59:53;;;;;;;11.98;4.00;;;4.90;99.90;;;;;;5027774;28;20560;-65
2022/01/05 06:02:18;;;;;;;11.05;3.20;;;4.90;99.90;;;;;;5029113;28;20030;-64
2022/01/05 06:04:44;;;;;;;8.32;2.45;;;4.90;99.90;;;;;;5034156;28;20040;-65
2022/01/05 06:07:10;;;;;;;10.32;2.58;;;4.80;99.90;;;;;;5026883;28;20069;-63
2022/01/05 06:09:35;;;;;;;6.50;2.55;;;4.80;99.90;;;;;;5028492;28;20025;-64
2022/01/05 06:12:02;;;;;;;9.80;2.50;;;4.80;99.90;;;;;;5029533;28;20068;-64
2022/01/05 06:14:27;;;;;;;11.15;2.70;;;4.70;99.90;;;;;;5029455;28;20030;-64
2022/01/05 06:16:53;;;;;;;7.97;2.30;;;4.70;99.90;;;;;;5031450;28;20084;-63
2022/01/05 06:19:19;;;;;;;8.25;2.60;;;4.70;99.90;;;;;;5037889;28;20096;-65
2022/01/05 06:21:45;;;;;;;10.85;2.55;;;4.70;99.90;;;;;;5033119;28;20022;-63
2022/01/05 06:24:12;;;;;;;9.70;2.15;;;4.60;99.90;;;;;;5029282;28;20040;-62
2022/01/05 06:26:37;;;;;;;6.85;2.05;;;4.60;99.90;;;;;;5030271;28;20044;-62
2022/01/05 06:29:03;;;;;;;8.82;2.17;;;4.50;99.90;;;;;;5028800;28;20029;-63
2022/01/05 06:31:29;;;;;;;8.40;1.92;;;4.60;99.90;;;;;;5028292;28;20033;-63
2022/01/05 06:33:55;;;;;;;8.95;2.33;;;4.60;99.90;;;;;;5033968;28;20066;-62
2022/01/05 06:36:21;;;;;;;7.22;2.30;;;4.60;99.90;;;;;;5028113;28;20034;-66
2022/01/05 06:38:47;;;;;;;10.25;2.33;;;4.70;99.90;;;;;;5026796;28;20034;-63
2022/01/05 06:41:13;;;;;;;8.00;3.00;;;4.70;99.90;;;;;;5028509;28;20500;-63
2022/01/05 06:43:38;;;;;;;10.93;2.53;;;4.80;99.90;;;;;;5030095;28;20140;-63
2022/01/05 06:46:04;;;;;;;12.68;2.60;;;4.80;99.90;;;;;;5032322;28;20071;-62
2022/01/05 06:48:30;;;;;;;8.15;1.88;;;4.80;99.90;;;;;;5032610;28;20056;-63
2022/01/05 06:50:56;;;;;;;11.75;2.20;;;4.80;99.90;;;;;;5031977;28;20056;-63
2022/01/05 06:53:22;;;;;;;11.10;1.88;;;4.80;99.90;;;;;;5028848;28;20527;-63
2022/01/05 06:55:47;;;;;;;9.35;1.90;;;4.90;99.90;;;;;;5029489;28;20029;-63
2022/01/05 06:58:13;;;;;;;7.90;1.98;;;4.90;99.90;;;;;;5027248;28;20060;-63
2022/01/05 07:00:39;;;;;;;10.05;2.33;;;4.90;99.90;;;;;;5025806;28;20037;-62
2022/01/05 07:03:05;;;;;;;8.55;2.13;;;4.90;99.90;;;;;;5029735;28;20071;-63
2022/01/05 07:05:31;;;;;;;8.60;2.05;;;4.90;99.90;;;;;;5032399;28;20075;-63
2022/01/05 07:07:58;;;;;;;14.27;3.58;;;4.90;99.90;;;;;;5029292;28;20029;-62
2022/01/05 07:10:23;;;;;;;10.43;2.60;;;5.00;99.90;;;;;;5029512;28;20477;-62
2022/01/05 07:12:49;;;;;;;12.18;2.80;;;4.90;99.90;;;;;;5026469;28;20026;-62
2022/01/05 07:15:16;;;;;;;11.02;2.30;;;5.00;99.90;;;;;;5028008;28;20037;-63
2022/01/05 07:17:42;;;;;;;9.90;2.30;;;5.00;99.90;;;;;;5026172;28;20462;-63
2022/01/05 07:20:09;;;;;;;11.68;2.45;;;5.00;99.90;;;;;;5027392;28;20029;-62
2022/01/05 07:22:36;;;;;;;11.77;2.45;;;5.00;99.90;;;;;;5028162;28;20026;-62
2022/01/05 07:25:04;;;;;;;11.00;2.40;;;5.00;99.90;;;;;;5026035;28;20030;-62
2022/01/05 07:27:29;;;;;;;6.32;2.08;;;5.00;99.90;;;;;;5019363;28;20034;-63
2022/01/05 07:29:55;;;;;;;10.23;2.45;;;5.00;99.90;;;;;;5025406;28;20033;-62
2022/01/05 07:32:21;;;;;;;11.25;2.17;;;5.10;99.90;;;;;;5026338;28;20492;-63
2022/01/05 07:34:47;;;;;;;10.35;2.10;;;5.00;99.90;;;;;;5029240;28;20056;-63
2022/01/05 07:37:12;;;;;;;11.25;2.17;;;5.00;99.90;;;;;;5031052;28;20051;-62
2022/01/05 07:39:39;;;;;;;7.72;1.90;;;5.00;99.90;;;;;;5025769;28;20041;-62
2022/01/05 07:42:06;;;;;;;11.20;1.98;;;5.10;99.90;;;;;;5027873;28;20425;-63
2022/01/05 07:44:32;;;;;;;9.40;1.92;;;5.10;99.90;;;;;;5026023;28;20112;-63
2022/01/05 07:46:57;;;;;;;11.68;1.80;;;5.10;99.90;;;;;;5029033;28;20134;-62
2022/01/05 07:49:23;;;;;;;9.85;1.80;;;5.10;99.90;;;;;;5026469;28;20107;-62
2022/01/05 07:51:49;;;;;;;10.23;1.80;;;5.10;99.90;;;;;;5026051;28;20021;-63
2022/01/05 07:54:15;;;;;;;11.50;1.92;;;5.10;99.90;;;;;;5025683;28;20025;-62
2022/01/05 07:56:41;;;;;;;10.63;1.75;;;5.20;99.90;;;;;;5027012;28;20129;-63
2022/01/05 07:59:06;;;;;;;8.93;1.70;;;5.20;99.90;;;;;;5027344;28;20121;-63
2022/01/05 08:01:32;;;;;;;10.15;1.90;;;5.10;99.90;;;;;;5027119;28;20100;-62
2022/01/05 08:03:58;;;;;;;11.38;2.00;;;5.20;99.90;;;;;;5025536;28;20021;-63
2022/01/05 08:06:24;;;;;;;11.07;2.17;;;5.10;99.90;;;;;;5025387;28;20079;-63
2022/01/05 08:08:50;;;;;;;15.18;2.47;;;5.10;99.90;;;;;;5025746;28;20025;-63
2022/01/05 08:11:16;;;;;;;13.30;2.42;;;5.00;99.90;;;;;;5026616;28;20448;-63
2022/01/05 08:13:42;;;;;;;10.02;2.63;;;5.00;99.90;;;;;;5027555;28;20492;-63
2022/01/05 08:16:09;;;;;;;10.75;2.90;;;4.90;99.90;;;;;;5026233;28;20412;-63
2022/01/05 08:18:35;;;;;;;12.85;2.92;;;4.90;99.90;;;;;;5025003;28;20040;-63
2022/01/05 08:21:01;;;;;;;9.60;2.03;;;4.70;99.90;;;;;;5025113;28;20029;-63
2022/01/05 08:23:27;;;;;;;9.93;2.30;;;5.00;99.90;;;;;;5026591;28;20068;-63
2022/01/05 08:25:53;;;;;;;10.77;2.28;;;5.00;99.90;;;;;;5029149;28;20069;-63
2022/01/05 08:28:20;;;;;;;10.93;2.50;;;5.00;99.90;;;;;;5024916;28;20128;-63
2022/01/05 08:30:47;;;;;;;10.50;2.00;;;5.10;99.90;;;;;;5024866;28;20042;-62
2022/01/05 08:33:14;;;;;;;9.60;1.98;;;5.10;99.90;;;;;;5024564;28;20040;-62
2022/01/05 08:35:42;;;;;;;8.50;1.60;;;5.20;99.90;;;;;;5024956;28;20034;-65
2022/01/05 08:38:08;;;;;;;10.15;2.60;;;5.30;99.90;;;;;;5027926;28;20032;-62
2022/01/05 08:40:36;;;;;;;7.55;1.10;;;5.30;99.90;;;;;;5026191;28;20029;-63
2022/01/05 08:43:04;;;;;;;5.88;1.20;;;5.60;99.90;;;;;;5024516;28;20113;-63
2022/01/05 08:45:30;;;;;;;8.65;1.17;;;5.60;99.90;;;;;;5025481;28;20018;-63
2022/01/05 08:47:58;;;;;;;9.80;1.20;;;5.60;99.90;;;;;;5024586;28;20091;-63
2022/01/05 08:50:27;;;;;;;6.97;1.25;;;5.60;99.90;;;;;;5024842;28;20413;-62
2022/01/05 08:52:54;;;;;;;5.75;1.40;;;5.60;99.90;;;;;;5025735;28;20055;-63
2022/01/05 08:55:22;;;;;;;6.28;1.15;;;5.60;99.90;;;;;;5024821;28;20095;-61
2022/01/05 08:57:49;;;;;;;5.13;1.08;;;5.60;99.90;;;;;;5022078;28;20025;-62
2022/01/05 09:00:15;;;;;;;6.07;1.10;;;5.60;99.90;;;;;;5024710;28;20041;-62
2022/01/05 09:02:41;;;;;;;6.28;1.30;;;5.70;99.90;;;;;;5024804;28;20053;-62
2022/01/05 09:05:08;;;;;;;7.32;1.25;;;5.60;99.90;;;;;;5026959;28;20065;-62
2022/01/05 09:07:34;;;;;;;8.02;1.42;;;5.70;99.90;;;;;;5035847;28;20123;-63
2022/01/05 09:10:00;;;;;;;9.25;1.48;;;5.70;99.90;;;;;;5027105;28;20029;-62
2022/01/05 09:12:26;;;;;;;8.88;1.40;;;5.70;99.90;;;;;;5023834;28;20025;-62
2022/01/05 09:14:52;;;;;;;9.30;1.63;;;5.70;99.90;;;;;;5028776;28;20108;-63
2022/01/05 09:17:17;;;;;;;9.55;1.42;;;5.70;99.90;;;;;;5029451;28;20107;-62
2022/01/05 09:19:43;;;;;;;9.07;1.50;;;5.70;99.90;;;;;;5031913;28;20071;-62
2022/01/05 09:22:09;;;;;;;9.73;1.75;;;5.70;99.90;;;;;;5028416;28;20051;-62
2022/01/05 09:24:37;;;;;;;12.23;2.10;;;5.80;99.90;;;;;;5028412;28;20501;-63
2022/01/05 09:27:04;;;;;;;8.77;1.75;;;5.80;99.90;;;;;;5028015;28;20505;-63
2022/01/05 09:29:31;;;;;;;9.07;2.03;;;5.80;99.90;;;;;;5030656;28;20033;-63
2022/01/05 09:31:58;;;;;;;8.73;1.80;;;5.90;99.90;;;;;;5031169;28;20032;-63
2022/01/05 09:34:25;;;;;;;8.10;1.60;;;5.90;99.90;;;;;;5029720;28;20045;-63
2022/01/05 09:36:58;;;;;;;6.40;1.75;;;5.90;99.90;;;;;;5029552;28;20029;-63
2022/01/05 09:42:08;;;;;;;10.27;1.98;;;5.80;99.90;;;;;;5029300;28;20036;-64
2022/01/05 09:44:43;;;;;;;11.77;2.00;;;6.10;99.90;;;;;;5040987;28;20419;-63
2022/01/05 09:47:36;;;;;;;6.45;1.80;;;6.10;99.90;;;;;;5030524;28;20021;-63
2022/01/05 09:50:07;;;;;;;8.20;1.77;;;6.10;99.90;;;;;;5028358;28;20148;-63
2022/01/05 09:52:34;;;;;;;12.07;1.80;;;6.10;99.90;;;;;;5030354;28;20026;-63
2022/01/05 09:55:02;;;;;;;9.18;1.88;;;6.20;99.90;;;;;;5027876;28;20037;-63
2022/01/05 09:57:29;;;;;;;11.73;2.03;;;6.30;99.90;;;;;;5027639;28;20096;-63
2022/01/05 09:59:56;;;;;;;9.00;1.90;;;6.40;99.90;;;;;;5029071;28;20077;-63
2022/01/05 10:02:23;;;;;;;12.50;2.30;;;6.40;99.90;;;;;;5029199;28;20029;-63
2022/01/05 10:04:49;;;;;;;13.68;2.60;;;6.40;99.90;;;;;;5031674;28;20033;-64
2022/01/05 10:07:15;;;;;;;11.75;2.55;;;6.40;99.90;;;;;;5026832;28;20025;-62
2022/01/05 10:09:43;;;;;;;10.05;2.00;;;6.50;99.90;;;;;;5029316;28;20115;-64
2022/01/05 10:12:11;;;;;;;8.82;1.90;;;6.60;99.90;;;;;;5029252;28;20056;-64
2022/01/05 10:14:42;;;;;;;15.02;2.65;;;6.60;99.90;;;;;;5029333;28;20061;-64
2022/01/05 10:17:11;;;;;;;9.95;1.90;;;6.70;99.90;;;;;;5029607;28;20033;-63
2022/01/05 10:19:38;;;;;;;7.72;1.95;;;6.90;99.90;;;;;;5035398;28;20046;-63
2022/01/05 10:22:25;;;;;;;9.80;2.30;;;7.00;99.90;;;;;;5029888;28;20025;-63
2022/01/05 10:24:53;;;;;;;9.93;2.20;;;7.10;99.90;;;;;;5025102;28;20040;-63
2022/01/05 10:27:21;;;;;;;12.73;2.20;;;7.40;99.90;;;;;;5026976;28;20045;-64
2022/01/05 10:29:57;;;;;;;10.15;2.08;;;8.10;99.90;;;;;;5027066;28;20132;-64
2022/01/05 10:32:32;;;;;;;14.90;4.70;;;9.30;99.90;;;;;;5043479;28;20388;-64
2022/01/05 10:35:07;;;;;;;10.93;2.80;;;10.50;95.00;;;;;;5026996;28;20025;-64
2022/01/05 10:37:34;;;;;;;8.95;2.30;;;11.30;87.20;;;;;;5031083;28;20047;-65
2022/01/05 10:40:19;;;;;;;11.85;2.17;;;11.90;83.80;;;;;;5028050;28;20044;-65
2022/01/05 10:42:47;;;;;;;11.13;2.30;;;12.80;75.20;;;;;;5026698;28;20041;-65
2022/01/05 10:45:16;;;;;;;11.13;2.05;;;11.60;70.60;;;;;;5026802;28;20556;-65
2022/01/05 10:47:42;;;;;;;13.45;2.30;;;13.10;69.90;;;;;;5025622;28;20029;-65
2022/01/05 10:50:19;;;;;;;7.97;2.05;;;14.30;75.20;;;;;;5037045;28;20032;-65
2022/01/05 10:52:56;;;;;;;11.75;2.25;;;14.40;68.70;;;;;;5044183;28;20022;-65
2022/01/05 10:55:24;;;;;;;10.75;2.20;;;15.20;61.00;;;;;;5028729;28;20473;-66
2022/01/05 10:58:06;;;;;;;9.85;2.28;;;15.20;62.00;;;;;;5030910;28;20049;-64
2022/01/05 11:00:33;;;;;;;10.90;2.58;;;11.90;70.50;;;;;;5026476;28;20063;-64
2022/01/05 11:03:00;;;;;;;10.10;2.25;;;11.50;77.60;;;;;;5026749;28;20032;-64
2022/01/05 11:05:26;;;;;;;10.90;2.38;;;11.00;91.10;;;;;;5026825;28;20029;-64
2022/01/05 11:08:06;;;;;;;8.98;2.00;;;10.70;84.20;;;;;;5030354;28;20017;-62
2022/01/05 11:10:32;;;;;;;10.30;2.00;;;;;;;;;;5029388;28;20025;-63
2022/01/05 11:12:58;;;;;;;8.20;1.92;;;9.90;99.10;;;;;;5024901;28;20030;-63
2022/01/05 11:15:24;;;;;;;12.40;2.17;;;;;;;;;;5027908;28;20025;-64
2022/01/05 11:18:13;;;;;;;7.10;1.95;;;8.60;99.90;;;;;;5026432;28;20744;-64
2022/01/05 11:20:43;;;;;;;8.23;1.75;;;10.10;92.20;;;;;;5012654;28;20108;-63
2022/01/05 11:23:09;;;;;;;8.13;1.70;;;9.80;99.90;;;;;;5028298;28;20117;-64
2022/01/05 11:25:37;;;;;;;9.25;1.67;;;10.30;94.20;;;;;;5029491;28;20025;-65
2022/01/05 11:28:04;;;;;;;9.38;2.00;;;10.30;92.90;;;;;;5026050;28;20068;-63
2022/01/05 11:30:30;;;;;;;11.00;1.98;;;9.60;99.90;;;;;;5026534;28;20366;-65
2022/01/05 11:32:56;;;;;;;9.50;1.83;;;;;;;;;;5025963;28;20035;-67
2022/01/05 11:35:22;;;;;;;7.28;1.75;;;9.30;99.90;;;;;;5026112;28;20035;-65
2022/01/05 11:37:48;;;;;;;10.45;1.67;;;;;;;;;;5029092;28;20034;-65
2022/01/05 11:40:14;;;;;;;9.38;2.65;;;9.10;99.90;;;;;;5025456;28;20049;-64
2022/01/05 11:42:41;;;;;;;18.25;11.65;;;8.90;99.90;;;;;;5025076;28;20534;-66
2022/01/05 11:45:10;;;;;;;20.35;11.00;;;10.20;93.50;;;;;;5026327;28;20056;-65
2022/01/05 11:47:40;;;;;;;59.58;32.15;;;10.10;95.90;;;;;;5024413;28;20021;-64
2022/01/05 11:50:26;;;;;;;86.82;47.40;;;10.10;96.90;;;;;;5032340;28;20523;-65
2022/01/05 11:53:07;;;;;;;128.05;72.82;;;8.30;99.90;;;;;;5025735;28;20676;-64
2022/01/05 11:55:59;;;;;;;75.53;45.95;;;8.10;99.90;;;;;;5033301;28;20030;-65
2022/01/05 11:58:29;;;;;;;26.02;14.65;;;8.90;99.90;;;;;;5028372;28;20025;-64
2022/01/05 12:01:13;;;;;;;20.33;14.63;;;11.10;97.70;;;;;;5027224;28;20087;-64
2022/01/05 12:03:57;;;;;;;19.13;8.88;;;9.10;99.90;;;;;;5028241;28;20469;-65
2022/01/05 12:06:32;;;;;;;14.98;7.30;;;9.00;96.20;;;;;;5026046;28;20479;-64
2022/01/05 12:09:01;;;;;;;10.57;5.65;;;9.10;99.90;;;;;;5028266;28;20041;-64
2022/01/05 12:11:28;;;;;;;7.68;3.20;;;;;;;;;;5029614;28;20029;-62
2022/01/05 12:13:54;;;;;;;11.30;4.63;;;9.20;98.40;;;;;;5039427;28;20416;-62
2022/01/05 12:16:20;;;;;;;14.27;6.85;;;8.90;99.90;;;;;;5024796;28;20028;-63
2022/01/05 12:19:11;;;;;;;18.83;8.48;;;9.90;99.90;;;;;;5027964;28;20030;-63
2022/01/05 12:21:46;;;;;;;17.10;7.45;;;8.00;99.90;;;;;;5025212;28;20475;-64
2022/01/05 12:24:12;;;;;;;8.10;4.03;;;7.40;99.90;;;;;;5028730;28;20082;-63
2022/01/05 12:26:38;;;;;;;11.05;4.55;;;;;;;;;;5019785;28;20064;-63
2022/01/05 12:29:04;;;;;;;12.43;3.92;;;8.80;99.90;;;;;;5025753;28;20049;-64
2022/01/05 12:31:55;;;;;;;18.13;8.20;;;8.90;99.90;;;;;;5025674;28;20060;-62
2022/01/05 12:34:54;;;;;;;9.25;3.85;;;9.30;99.90;;;;;;5026450;28;20112;-64
2022/01/05 12:37:39;;;;;;;7.32;1.80;;;10.00;99.90;;;;;;5027553;28;20112;-65
2022/01/05 12:40:21;;;;;;;12.05;3.20;;;13.20;99.90;;;;;;5023361;28;20052;-64
2022/01/05 12:42:47;;;;;;;12.50;3.45;;;;;;;;;;5026018;28;20097;-64
2022/01/05 12:46:03;;;;;;;7.97;1.90;;;10.90;99.90;;;;;;5022595;28;20126;-63
2022/01/05 12:48:32;;;;;;;33.08;17.27;;;9.60;99.90;;;;;;5016387;28;20038;-64
2022/01/05 12:51:20;;;;;;;12.25;2.72;;;10.60;99.90;;;;;;5022200;28;20032;-63
2022/01/05 12:54:07;;;;;;;11.05;3.38;;;10.10;99.90;;;;;;5017020;28;20115;-63
2022/01/05 12:56:43;;;;;;;27.25;11.68;;;10.00;99.90;;;;;;5020760;28;20559;-63
2022/01/05 12:59:21;;;;;;;25.10;12.80;;;13.10;99.90;;;;;;5021615;28;20041;-62